createdAt,value
2022-10-17T00:02:03.193Z,40.17
2022-10-17T00:06:08.757Z,31.88
2022-10-17T00:10:12.183Z,33.28
2022-10-17T00:14:16.989Z,30.67
2022-10-17T00:18:20.399Z,21.13
2022-10-17T00:22:23.792Z,45.20
2022-10-17T00:26:28.244Z,41.50
2022-10-17T00:30:33.550Z,26.33
2022-10-17T00:34:37.254Z,20.48
2022-10-17T00:38:41.267Z,40.97
2022-10-17T00:42:44.506Z,29.90
2022-10-17T00:46:49.401Z,43.95
2022-10-17T00:50:53.368Z,22.33
2022-10-17T00:55:00.668Z,34.75
2022-10-17T01:03:09.075Z,27.02
2022-10-17T01:07:12.628Z,37.20
2022-10-17T01:11:28.292Z,27.98
2022-10-17T01:15:40.963Z,29.77
2022-10-17T01:20:12.072Z,30.95
2022-10-17T01:25:01.467Z,31.50
2022-10-17T01:29:30.571Z,51.40
2022-10-17T01:33:45.834Z,21.05
2022-10-17T01:37:55.184Z,27.08
2022-10-17T01:42:04.132Z,31.40
2022-10-17T01:46:15.157Z,49.17
2022-10-17T01:50:25.334Z,53.63
2022-10-17T01:54:34.820Z,44.92
2022-10-17T01:58:42.845Z,51.00
2022-10-17T02:02:49.104Z,42.88
2022-10-17T02:06:53.457Z,59.63
2022-10-17T02:11:00.963Z,39.20
2022-10-17T02:15:30.816Z,35.40
2022-10-17T02:19:48.316Z,34.67
2022-10-17T02:24:00.186Z,34.53
2022-10-17T02:28:12.110Z,42.17
2022-10-17T02:32:19.244Z,32.43
2022-10-17T02:36:26.327Z,40.60
2022-10-17T02:40:32.938Z,29.38
2022-10-17T02:44:38.819Z,29.13
2022-10-17T02:48:45.848Z,33.45
2022-10-17T02:52:54.708Z,26.00
2022-10-17T02:57:03.103Z,35.65
2022-10-17T03:01:07.238Z,26.48
2022-10-17T03:05:11.556Z,21.02
2022-10-17T03:09:16.152Z,33.92
2022-10-17T03:13:21.594Z,24.98
2022-10-17T03:17:25.576Z,26.70
2022-10-17T03:21:28.685Z,26.40
2022-10-17T03:25:32.171Z,26.83
2022-10-17T03:29:37.224Z,34.58
2022-10-17T03:33:40.833Z,35.05
2022-10-17T03:37:44.087Z,36.92
2022-10-17T03:41:47.598Z,35.78
2022-10-17T03:45:52.585Z,30.25
2022-10-17T03:49:56.125Z,24.20
2022-10-17T03:53:59.089Z,33.38
2022-10-17T03:58:02.537Z,38.30
2022-10-17T04:02:07.488Z,40.42
2022-10-17T04:06:13.768Z,44.53
2022-10-17T04:10:17.116Z,40.97
2022-10-17T04:14:21.264Z,40.33
2022-10-17T04:18:26.317Z,38.00
2022-10-17T04:22:29.954Z,43.72
2022-10-17T04:26:33.351Z,47.10
2022-10-17T04:30:38.009Z,38.90
2022-10-17T04:34:45.287Z,38.10
2022-10-17T04:38:49.159Z,43.90
2022-10-17T04:42:53.173Z,38.63
2022-10-17T04:46:56.214Z,43.40
2022-10-17T04:51:02.987Z,43.03
2022-10-17T04:55:07.193Z,43.05
2022-10-17T04:59:10.192Z,39.67
2022-10-17T05:03:13.427Z,40.70
2022-10-17T05:07:18.281Z,37.17
2022-10-17T05:11:23.962Z,41.35
2022-10-17T05:15:27.428Z,30.00
2022-10-17T05:19:30.965Z,33.65
2022-10-17T05:23:35.653Z,40.55
2022-10-17T05:27:39.970Z,35.42
2022-10-17T05:31:43.100Z,54.25
2022-10-17T05:35:46.588Z,37.75
2022-10-17T05:39:51.617Z,36.05
2022-10-17T05:43:55.559Z,30.60
2022-10-17T05:47:59.159Z,29.65
2022-10-17T05:52:03.277Z,34.92
2022-10-17T05:56:10.060Z,24.35
2022-10-17T06:00:14.490Z,30.80
2022-10-17T06:04:17.588Z,38.60
2022-10-17T06:08:21.817Z,27.45
2022-10-17T06:12:26.887Z,33.30
2022-10-17T06:16:30.414Z,39.97
2022-10-17T06:20:33.945Z,35.97
2022-10-17T06:24:37.499Z,40.88
2022-10-17T06:28:42.906Z,38.75
2022-10-17T06:32:46.464Z,38.10
2022-10-17T06:36:49.943Z,51.38
2022-10-17T06:40:54.595Z,52.05
2022-10-17T06:44:59.433Z,47.85
2022-10-17T06:49:02.944Z,39.95
2022-10-17T06:53:06.056Z,43.30
2022-10-17T06:57:09.552Z,45.72
2022-10-17T07:01:15.357Z,46.78
2022-10-17T07:05:19.828Z,38.22
2022-10-17T07:09:23.509Z,41.20
2022-10-17T07:13:26.776Z,47.92
2022-10-17T07:17:32.091Z,46.30
2022-10-17T07:21:39.009Z,42.45
2022-10-17T07:25:42.867Z,46.10
2022-10-17T07:29:45.921Z,41.03
2022-10-17T07:33:51.066Z,41.22
2022-10-17T07:37:54.477Z,40.92
2022-10-17T07:41:59.368Z,41.35
2022-10-17T07:46:04.313Z,42.53
2022-10-17T07:50:09.740Z,40.00
2022-10-17T07:54:14.793Z,53.78
2022-10-17T07:58:18.554Z,43.63
2022-10-17T08:02:24.642Z,41.53
2022-10-17T08:06:29.711Z,34.42
2022-10-17T08:10:33.093Z,36.13
2022-10-17T08:14:36.906Z,40.10
2022-10-17T08:18:42.273Z,41.63
2022-10-17T08:22:53.794Z,40.22
2022-10-17T08:26:58.934Z,40.47
2022-10-17T08:31:06.119Z,43.75
2022-10-17T08:35:10.770Z,37.22
2022-10-17T08:39:15.611Z,36.28
2022-10-17T08:43:35.204Z,39.25
2022-10-17T08:47:41.158Z,42.55
2022-10-17T08:51:51.470Z,32.60
2022-10-17T08:55:56.675Z,40.22
2022-10-17T09:00:00.781Z,34.42
2022-10-17T09:04:21.041Z,36.30
2022-10-17T09:08:35.339Z,43.90
2022-10-17T09:12:48.730Z,33.42
2022-10-17T09:17:06.111Z,32.33
2022-10-17T09:21:20.821Z,24.95
2022-10-17T09:25:24.706Z,31.17
2022-10-17T09:29:36.088Z,28.17
2022-10-17T09:33:53.839Z,33.67
2022-10-17T09:37:58.502Z,28.08
2022-10-17T09:42:03.255Z,35.88
2022-10-17T09:46:14.127Z,28.63
2022-10-17T09:50:23.434Z,32.97
2022-10-17T09:54:35.661Z,28.92
2022-10-17T09:58:43.153Z,32.60
2022-10-17T10:02:47.491Z,28.92
2022-10-17T10:07:04.793Z,37.15
2022-10-17T10:11:13.770Z,34.30
2022-10-17T10:15:39.069Z,31.58
2022-10-17T10:19:52.417Z,29.63
2022-10-17T10:24:08.042Z,33.28
2022-10-17T10:28:12.942Z,32.70
2022-10-17T10:32:22.071Z,29.00
2022-10-17T10:36:27.384Z,26.00
2022-10-17T10:40:35.627Z,30.85
2022-10-17T10:44:42.772Z,29.48
2022-10-17T10:48:55.951Z,28.20
2022-10-17T10:53:15.623Z,25.67
2022-10-17T10:57:22.919Z,24.77
2022-10-17T11:01:40.625Z,28.10
2022-10-17T11:05:48.297Z,27.42
2022-10-17T11:09:56.430Z,29.58
2022-10-17T11:14:04.261Z,24.45
2022-10-17T11:18:09.844Z,23.52
2022-10-17T11:22:17.817Z,25.85
2022-10-17T11:26:28.953Z,27.23
2022-10-17T11:30:42.721Z,28.17
2022-10-17T11:34:50.158Z,23.20
2022-10-17T11:38:59.062Z,28.00
2022-10-17T11:43:07.502Z,27.13
2022-10-17T11:47:18.966Z,22.95
2022-10-17T11:55:46.480Z,27.95
2022-10-17T12:00:08.405Z,22.45
2022-10-17T12:04:23.272Z,30.57
2022-10-17T12:08:33.186Z,25.42
2022-10-17T12:12:37.386Z,22.58
2022-10-17T12:16:47.825Z,20.75
2022-10-17T12:20:58.568Z,24.30
2022-10-17T12:25:05.504Z,24.85
2022-10-17T12:29:30.165Z,26.80
2022-10-17T12:33:37.700Z,19.52
2022-10-17T12:38:01.853Z,24.88
2022-10-17T12:42:05.437Z,22.48
2022-10-17T12:46:10.317Z,30.85
2022-10-17T12:50:49.351Z,22.92
2022-10-17T12:55:11.454Z,22.65
2022-10-17T12:59:19.574Z,28.38
2022-10-17T13:03:26.426Z,27.38
2022-10-17T13:07:31.129Z,23.35
2022-10-17T13:11:39.668Z,24.13
2022-10-17T13:15:47.847Z,20.83
2022-10-17T13:19:51.695Z,26.95
2022-10-17T13:23:55.491Z,28.70
2022-10-17T13:28:09.564Z,26.17
2022-10-17T13:32:14.148Z,23.90
2022-10-17T13:36:19.320Z,24.45
2022-10-17T13:40:49.464Z,19.98
2022-10-17T13:44:50.411Z,22.40
2022-10-17T13:48:53.815Z,21.83
2022-10-17T13:53:17.927Z,23.45
2022-10-17T13:57:22.854Z,30.38
2022-10-17T14:01:29.454Z,27.05
2022-10-17T14:05:34.624Z,29.00
2022-10-17T14:09:37.654Z,25.95
2022-10-17T14:13:41.685Z,27.00
2022-10-17T14:17:47.276Z,22.13
2022-10-17T14:21:50.892Z,22.90
2022-10-17T14:26:07.138Z,27.23
2022-10-17T14:30:55.869Z,25.20
2022-10-17T14:35:18.762Z,24.42
2022-10-17T14:39:29.027Z,23.30
2022-10-17T14:43:33.822Z,21.98
2022-10-17T14:47:44.510Z,33.53
2022-10-17T14:52:17.692Z,29.23
2022-10-17T14:56:24.975Z,28.48
2022-10-17T15:00:28.652Z,26.35
2022-10-17T15:04:31.743Z,34.80
2022-10-17T15:08:36.869Z,25.50
2022-10-17T15:12:47.901Z,31.00
2022-10-17T15:17:02.134Z,28.35
2022-10-17T15:21:25.681Z,26.58
2022-10-17T15:25:32.498Z,27.17
2022-10-17T15:29:35.617Z,29.63
2022-10-17T15:33:39.368Z,27.55
2022-10-17T15:37:42.928Z,26.92
2022-10-17T15:41:48.479Z,28.80
2022-10-17T15:50:17.886Z,33.25
2022-10-17T15:54:21.629Z,31.42
2022-10-17T15:58:29.033Z,34.00
2022-10-17T16:02:33.848Z,35.53
2022-10-17T16:06:36.951Z,32.65
2022-10-17T16:10:42.195Z,38.95
2022-10-17T16:14:47.124Z,37.20
2022-10-17T16:18:51.191Z,32.78
2022-10-17T16:23:00.177Z,37.95
2022-10-17T16:27:03.216Z,26.88
2022-10-17T16:31:20.447Z,32.78
2022-10-17T16:35:27.335Z,39.13
2022-10-17T16:39:30.328Z,33.35
2022-10-17T16:43:36.678Z,31.77
2022-10-17T16:47:41.111Z,39.72
2022-10-17T16:51:44.559Z,37.80
2022-10-17T16:55:47.914Z,41.40
2022-10-17T17:04:15.554Z,42.67
2022-10-17T17:08:18.770Z,35.55
2022-10-17T17:12:22.270Z,43.33
2022-10-17T17:16:26.969Z,48.60
2022-10-17T17:20:31.756Z,36.83
2022-10-17T17:24:34.859Z,40.53
2022-10-17T17:28:39.129Z,37.33
2022-10-17T17:32:42.469Z,36.58
2022-10-17T17:36:47.616Z,43.22
2022-10-17T17:40:51.370Z,46.22
2022-10-17T17:44:55.004Z,41.80
2022-10-17T17:48:58.160Z,39.45
2022-10-17T17:53:03.102Z,39.25
2022-10-17T17:57:06.279Z,46.60
2022-10-17T18:01:14.850Z,36.28
2022-10-17T18:05:18.314Z,39.20
2022-10-17T18:09:24.311Z,44.38
2022-10-17T18:13:27.776Z,55.22
2022-10-17T18:17:31.594Z,52.28
2022-10-17T18:21:35.143Z,49.42
2022-10-17T18:25:40.381Z,42.78
2022-10-17T18:29:45.851Z,43.47
2022-10-17T18:33:49.121Z,41.60
2022-10-17T18:37:52.323Z,36.88
2022-10-17T18:41:57.404Z,48.28
2022-10-17T18:46:08.580Z,45.78
2022-10-17T18:50:15.129Z,39.28
2022-10-17T18:54:20.938Z,42.28
2022-10-17T18:58:26.455Z,44.08
2022-10-17T19:02:33.160Z,41.22
2022-10-17T19:06:39.951Z,44.63
2022-10-17T19:10:44.747Z,42.78
2022-10-17T19:14:53.232Z,47.42
2022-10-17T19:18:59.859Z,36.97
2022-10-17T19:23:02.997Z,43.50
2022-10-17T19:27:07.593Z,45.65
2022-10-17T19:31:16.844Z,40.25
2022-10-17T19:35:21.332Z,33.90
2022-10-17T19:39:25.394Z,37.28
2022-10-17T19:43:29.653Z,51.03
2022-10-17T19:47:34.869Z,41.03
2022-10-17T19:51:38.369Z,36.65
2022-10-17T19:55:42.862Z,46.58
2022-10-17T19:59:46.701Z,43.60
2022-10-17T20:03:52.487Z,47.00
2022-10-17T20:07:55.603Z,40.42
2022-10-17T20:11:58.666Z,52.17
2022-10-17T20:16:02.139Z,42.22
2022-10-17T20:20:09.032Z,55.85
2022-10-17T20:24:15.550Z,42.42
2022-10-17T20:28:18.541Z,45.30
2022-10-17T20:32:22.067Z,34.75
2022-10-17T20:36:27.208Z,46.72
2022-10-17T20:40:35.167Z,47.28
2022-10-17T20:44:38.936Z,33.63
2022-10-17T20:48:42.350Z,38.95
2022-10-17T20:52:46.815Z,39.33
2022-10-17T20:56:50.393Z,26.05
2022-10-17T21:00:53.784Z,24.42
2022-10-17T21:04:57.180Z,37.88
2022-10-17T21:09:01.618Z,39.38
2022-10-17T21:13:04.820Z,33.42
2022-10-17T21:17:07.935Z,30.98
2022-10-17T21:21:13.787Z,27.23
2022-10-17T21:25:18.635Z,36.10
2022-10-17T21:29:22.331Z,24.77
2022-10-17T21:33:25.432Z,27.88
2022-10-17T21:37:29.068Z,28.77
2022-10-17T21:41:34.226Z,24.42
2022-10-17T21:45:38.212Z,29.38
2022-10-17T21:49:41.235Z,19.63
2022-10-17T21:53:45.292Z,28.27
2022-10-17T21:57:50.583Z,68.63
2022-10-17T22:01:54.170Z,70.68
2022-10-17T22:06:07.089Z,37.03
2022-10-17T22:14:26.694Z,34.78
2022-10-17T22:18:30.619Z,31.98
2022-10-17T22:22:33.959Z,52.33
2022-10-17T22:26:39.541Z,50.22
2022-10-17T22:30:44.000Z,66.95
2022-10-17T22:34:48.483Z,35.08
2022-10-17T22:38:51.633Z,55.42
2022-10-17T22:42:55.711Z,35.03
2022-10-17T22:47:00.512Z,30.20
2022-10-17T22:51:04.119Z,28.90
2022-10-17T22:55:09.048Z,36.42
2022-10-17T22:59:12.503Z,27.25
2022-10-17T23:03:17.864Z,22.13
2022-10-17T23:07:21.363Z,19.27
2022-10-17T23:11:24.792Z,22.00
2022-10-17T23:15:28.230Z,19.40
2022-10-17T23:19:34.634Z,19.67
2022-10-17T23:23:37.825Z,20.08
2022-10-17T23:27:40.816Z,14.98
2022-10-17T23:31:44.250Z,13.02
2022-10-17T23:35:49.170Z,18.10
2022-10-17T23:39:52.936Z,15.68
2022-10-17T23:43:55.976Z,14.23
2022-10-17T23:47:59.637Z,17.85
2022-10-17T23:52:04.745Z,13.73
2022-10-17T23:56:10.604Z,12.52
